< < Back
Terminal Aerodrome Forecast


Current Version              Previous Versions:   1  2  3  4  5  6  7  8  9  

Terminal Aerodrome Forecast

513
FTUS44 KHUN 290520
TAFHSV
TAF
KHSV 290520Z 2906/3006 01003KT P6SM FEW035 SCT150 SCT250
     FM291400 35007KT P6SM SCT035 SCT150
     FM292200 01005KT P6SM FEW035=



Latest METAR

339
SAUS80 KWBC 291600 RRB
MTRHSV
METAR KHSV 291553Z 02007KT 10SM FEW045 31/18 A3004 RMK AO2 SLP162
T03110178


USA.gov is the U.S. government's official web portal to all federal, state and local government web resources and services.